AirNav   Everest Fuels
 
 1140 users online  

01TA Thirty Thirty Matlock Office Center Heliport
Arlington, Texas, USA

GOING TO ARLINGTON?


FAA INFORMATION EFFECTIVE 10 SEPTEMBER 2020

Location

FAA Identifier: 01TA
Lat/Long: 32-41-39.0000N 097-06-57.0000W
32-41.650000N 097-06.950000W
32.6941667,-97.1158333
(estimated)
Elevation: 630 ft. / 192 m (estimated)
Variation: 06E (2000)
Time zone: UTC -5 (UTC -6 during Standard Time)
Zip code: 76015

Heliport Operations

Heliport use: Private use. Permission required prior to landing
Activation date: 06/2002
Control tower: no
ARTCC: FORT WORTH CENTER
FSS: FORT WORTH FLIGHT SERVICE STATION
Attendance: UNATNDD
Wind indicator: yes
Segmented circle: no

Heliport Communications

WX ASOS at GKY (2.1 nm SE): 127.375 (817-557-0251)
WX AWOS-3P at GPM (3 nm E): 118.475 (972-606-1433)
WX AWOS-3 at FWS (12 nm SW): 120.025 (817-426-4172)
WX ASOS at RBD (12 nm E): PHONE 214-330-5317
WX ASOS at DFW (13 nm N): PHONE 972-615-2608
WX ASOS at FTW (15 nm NW): PHONE 817-740-3346
WX ASOS at DAL (16 nm NE): PHONE 214-353-1551
WX AWOS-3 at 49T (17 nm E): 135.425 (214-670-1243)
WX AWOS-3 at JWY (17 nm SE): 119.575 (972-937-4747)

Nearby radio navigation aids

VOR radial/distance  VOR name  Freq  Var
TTTr194/11.2MAVERICK VOR/DME113.1006E
FUZr159/12.1RANGER VORTAC115.7006E
CVEr216/15.9COWBOY VOR/DME116.2006E

 
NDB name  Hdg/Dist  Freq  Var  ID
MESQUITE254/30.424803EPQF .--. --.- ..-.

Heliport Services

Runway Information

Helipad H1

Dimensions: 30 x 30 ft. / 9 x 9 m
Surface: concrete
ROOFTOP.
Traffic pattern: leftleft

Heliport Ownership and Management from official FAA records

Ownership: Privately-owned
Owner: 3030 MATLOCK LTD
3020 MATLOCK ROAD SUITE 120
ARLINGTON, TX 76015
Phone 817-419-8000
Manager: ROLAND STEWART
3020 MATLOCK ROAD SUITE 120
ARLINGTON, TX 76015
Phone 817-419-8000

Heliport Operational Statistics

Aircraft based on the field: 1
Helicopters: 1
    

Additional Remarks

FOR CD CTC REGIONAL APCH AT 972-615-2799.

Instrument Procedures

There are no published instrument procedures at 01TA.

Some nearby airports with instrument procedures:

KGKY - Arlington Municipal Airport (2 nm SE)
KGPM - Grand Prairie Municipal Airport (3 nm E)
KFWS - Fort Worth Spinks Airport (12 nm SW)
KRBD - Dallas Executive Airport (12 nm E)
KDFW - Dallas-Fort Worth International Airport (13 nm N)
KFTW - Fort Worth Meacham International Airport (15 nm NW)
KDAL - Dallas Love Field Airport (16 nm NE)
KNFW - Fort Worth Naval Air Station JRB (Carswell Field) Airport (17 nm W)
KJWY - Mid-Way Regional Airport (17 nm SE)
 
Loc | Ops | Rwys | IFR | FBO | Links
Com | Nav | Svcs | Stats | Notes

City of Fort Worth
 
Area around 01TA (Thirty Thirty Matlock Office Center Heliport)
 
Road maps at: MapQuest Bing Google
 
Aerial photo
No photo
 
Sectional chart

 
Airport distance calculator
Flying to Thirty Thirty Matlock Office Center Heliport? Find the distance to fly.

From to 01TA

Sunrise and sunset
Times for 25-Sep-2020
 Local
(UTC-5)
 Zulu
(UTC)
Morning civil twilight06:5611:56
Sunrise07:2012:20
Sunset19:1900:19
Evening civil twilight19:4400:44

Current date and time
Zulu (UTC)  26-Sep-2020 00:14:44
Local (UTC-5)  25-Sep-2020 19:14:44
 
METAR
KGKY 
2nm SE 
252353Z 13009KT 10SM CLR 28/17 A2991 RMK AO2 SLP122 T02780172 10300 20256 56005
KGPM 
3nm E 
252250Z 12006KT 10SM SKC 28/17 A2993
KFWS 
12nm SW 
252351Z 12005KT 10SM CLR 27/19 A2993
KRBD 
13nm E 
252353Z 15007KT 10SM CLR 26/17 A2991 RMK AO2 SLP123 T02610167 10283 20250 56005
KDFW 
13nm N 
252353Z 16008KT 10SM CLR 26/18 A2990 RMK AO2 SLP119 T02610178 10283 20244 56004
KFTW 
15nm NW 
252353Z 14011KT 10SM CLR 27/18 A2990 RMK AO2 SLP120 T02670183 10289 20244 56004
KDAL 
16nm NE 
252353Z 13008KT 10SM CLR 27/17 A2991 RMK AO2 SLP124 T02670172 10289 20250 56006
KNFW 
17nm W 
252352Z 15009KT 10SM CLR 28/18 A2991 RMK AO2 SLP112 T02830178 10306 20256 55004
KJWY 
18nm SE 
252355Z AUTO 00000KT 10SM CLR 26/18 A2994 RMK AO2 T02550181 10282 20250
KAFW 
19nm NW 
252353Z 15010KT 10SM CLR 28/18 A2990 RMK AO2 SLP117 T02780178 10294 20261 56005
TAF
KGKY 
2nm SE 
252108Z 2521/2618 14007KT P6SM SKC
KDFW 
13nm N 
252108Z 2521/2624 18008KT P6SM SKC
KFTW 
15nm NW 
252108Z 2521/2618 13008KT P6SM SKC
KDAL 
16nm NE 
252108Z 2521/2618 12006KT P6SM SKC
KNFW 
17nm W 
2515/2615 18010KT 8000 BR OVC005 QNH2997INS BECMG 2515/2517 18011KT 9999 NSW SCT020 QNH2995INS FM251800 17009KT 9999 SKC QNH2988INS FM261200 VRB04KT 9999 BKN010 QNH2990INS T32/2522Z T18/2612Z FN20048
KAFW 
19nm NW 
252108Z 2521/2618 15007KT P6SM SKC
NOTAMs
Click for the latest NOTAMs
NOTAMs are issued by the DoD/FAA and will open in a separate window not controlled by AirNav.

 

 
 

Would you like to see your business listed on this page?

 If your business provides an interesting product or service to pilots, flight crews, aircraft, or users of the Thirty Thirty Matlock Office Center Heliport, you should consider listing it here.  To start the listing process, click on the button below
 
Add a business
 

Other Pages about Thirty Thirty Matlock Office Center Heliport

Update a link
 
Copyright © AirNav, LLC. All rights reserved. Privacy Policy  Contact